Time,TemperatureF,DewpointF,PressureIn,WindDirection,WindDirectionDegrees,WindSpeedMPH,WindSpeedGustMPH,Humidity,HourlyPrecipIn,Conditions,Clouds,dailyrainin,SoftwareType,DateUTC
2013-05-16 00:02:00,62.0,48.0,29.72,South,189,0.0,2.0,60,0.00,,,0.01,,2013-05-16 04:02:00,
2013-05-16 00:12:00,62.0,48.0,29.72,South,189,0.0,2.0,60,0.00,,,0.01,,2013-05-16 04:12:00,
2013-05-16 00:23:00,60.0,49.0,29.72,SSW,200,4.0,7.0,66,0.00,,,0.01,,2013-05-16 04:23:00,
2013-05-16 00:33:00,60.0,50.0,29.72,South,187,2.0,11.0,69,0.00,,,0.01,,2013-05-16 04:33:00,
2013-05-16 00:42:00,60.0,50.0,29.72,South,187,2.0,11.0,69,0.00,,,0.01,,2013-05-16 04:42:00,
2013-05-16 00:53:00,58.0,50.0,29.73,SSW,198,4.0,6.0,74,0.00,,,0.01,,2013-05-16 04:53:00,
2013-05-16 01:02:00,57.0,49.0,29.72,South,175,0.0,0.0,75,0.00,,,0.01,,2013-05-16 05:02:00,
2013-05-16 01:12:00,57.0,49.0,29.72,South,175,0.0,0.0,75,0.00,,,0.01,,2013-05-16 05:12:00,
2013-05-16 01:22:00,56.0,49.0,29.73,South,175,0.0,5.0,77,0.00,,,0.01,,2013-05-16 05:22:00,
2013-05-16 01:32:00,56.0,49.0,29.73,South,184,3.0,5.0,78,0.00,,,0.01,,2013-05-16 05:32:00,
2013-05-16 01:42:00,56.0,49.0,29.73,South,184,3.0,5.0,78,0.00,,,0.01,,2013-05-16 05:42:00,
2013-05-16 01:52:00,55.0,49.0,29.73,South,171,0.0,3.0,79,0.00,,,0.01,,2013-05-16 05:52:00,
2013-05-16 02:02:00,55.0,49.0,29.73,South,172,0.0,3.0,80,0.00,,,0.01,,2013-05-16 06:02:00,
2013-05-16 02:12:00,55.0,49.0,29.73,South,172,0.0,3.0,80,0.00,,,0.01,,2013-05-16 06:12:00,
2013-05-16 02:22:00,54.0,48.0,29.73,South,172,0.0,3.0,81,0.00,,,0.01,,2013-05-16 06:22:00,
2013-05-16 02:33:00,54.0,48.0,29.72,SSE,165,2.0,3.0,80,0.00,,,0.01,,2013-05-16 06:33:00,
2013-05-16 02:43:00,54.0,48.0,29.72,SSE,165,2.0,3.0,80,0.00,,,0.01,,2013-05-16 06:43:00,
2013-05-16 02:53:00,53.0,48.0,29.72,South,173,0.0,1.0,82,0.00,,,0.01,,2013-05-16 06:53:00,
2013-05-16 03:02:00,52.0,47.0,29.73,South,188,4.0,6.0,84,0.00,,,0.01,,2013-05-16 07:02:00,
2013-05-16 03:12:00,52.0,47.0,29.73,South,188,4.0,6.0,84,0.00,,,0.01,,2013-05-16 07:12:00,
2013-05-16 03:21:00,53.0,48.0,29.73,SSW,199,2.0,6.0,83,0.00,,,0.01,,2013-05-16 07:21:00,
2013-05-16 03:24:00,53.0,48.0,29.73,South,191,4.0,9.0,84,0.00,,,0.01,,2013-05-16 07:24:00,
2013-05-16 03:34:00,53.0,48.0,29.73,South,188,4.0,7.0,84,0.00,,,0.01,,2013-05-16 07:34:00,
2013-05-16 03:44:00,53.0,48.0,29.73,South,188,4.0,7.0,84,0.00,,,0.01,,2013-05-16 07:44:00,
2013-05-16 03:54:00,53.0,48.0,29.73,SSW,199,2.0,6.0,83,0.00,,,0.01,,2013-05-16 07:54:00,
2013-05-16 04:03:00,53.0,48.0,29.73,SSW,199,2.0,6.0,83,0.00,,,0.01,,2013-05-16 08:03:00,
2013-05-16 04:13:00,53.0,48.0,29.73,SSW,199,2.0,6.0,83,0.00,,,0.01,,2013-05-16 08:13:00,
2013-05-16 08:35:00,59.0,51.0,29.76,South,180,4.0,12.0,74,0.00,,,0.00,,2013-05-16 12:35:00,
2013-05-16 08:45:00,59.0,51.0,29.76,South,180,4.0,12.0,74,0.00,,,0.00,,2013-05-16 12:45:00,
2013-05-16 08:53:00,61.0,52.0,29.76,South,178,5.0,13.0,72,0.00,,,0.00,,2013-05-16 12:53:00,
2013-05-16 09:04:00,62.0,51.0,29.77,SSE,162,8.0,14.0,67,0.00,,,0.00,,2013-05-16 13:04:00,
2013-05-16 09:12:00,62.0,51.0,29.77,SSE,162,8.0,14.0,67,0.00,,,0.00,,2013-05-16 13:12:00,
2013-05-16 09:26:00,64.0,52.0,29.77,WSW,241,8.0,16.0,64,0.00,,,0.00,,2013-05-16 13:26:00,
2013-05-16 09:35:00,65.0,52.0,29.77,SSW,193,4.0,12.0,62,0.00,,,0.00,,2013-05-16 13:35:00,
2013-05-16 09:43:00,65.0,52.0,29.77,SSW,193,4.0,12.0,62,0.00,,,0.00,,2013-05-16 13:43:00,
2013-05-16 09:55:00,66.0,50.0,29.78,SSW,202,5.0,15.0,57,0.00,,,0.00,,2013-05-16 13:55:00,
2013-05-16 10:05:00,67.0,50.0,29.77,SW,229,8.0,14.0,55,0.00,,,0.00,,2013-05-16 14:05:00,
2013-05-16 10:16:00,67.0,50.0,29.77,SW,229,8.0,14.0,55,0.00,,,0.00,,2013-05-16 14:16:00,
2013-05-16 10:23:00,68.0,50.0,29.78,West,265,7.0,15.0,52,0.00,,,0.00,,2013-05-16 14:23:00,
2013-05-16 10:37:00,69.0,51.0,29.78,SW,220,2.0,17.0,52,0.00,,,0.00,,2013-05-16 14:37:00,
2013-05-16 10:47:00,69.0,51.0,29.78,SW,220,2.0,17.0,52,0.00,,,0.00,,2013-05-16 14:47:00,
2013-05-16 10:56:00,70.0,52.0,29.77,SW,215,1.0,15.0,52,0.00,,,0.00,,2013-05-16 14:56:00,
2013-05-16 11:08:00,71.0,52.0,29.78,NNW,343,2.0,11.0,52,0.00,,,0.00,,2013-05-16 15:08:00,
2013-05-16 11:17:00,71.0,52.0,29.78,NNW,343,2.0,11.0,52,0.00,,,0.00,,2013-05-16 15:17:00,
2013-05-16 11:28:00,70.0,49.0,29.78,WNW,285,3.0,12.0,47,0.00,,,0.00,,2013-05-16 15:28:00,
2013-05-16 11:40:00,71.0,51.0,29.79,NNW,341,1.0,14.0,49,0.00,,,0.00,,2013-05-16 15:40:00,
2013-05-16 11:50:00,71.0,50.0,29.79,West,275,5.0,12.0,48,0.00,,,0.00,,2013-05-16 15:50:00,
2013-05-16 12:00:00,71.0,50.0,29.79,West,275,5.0,12.0,48,0.00,,,0.00,,2013-05-16 16:00:00,
2013-05-16 12:09:00,71.0,50.0,29.78,NNW,342,7.0,14.0,47,0.00,,,0.00,,2013-05-16 16:09:00,
2013-05-16 12:20:00,71.0,50.0,29.78,NNW,342,7.0,14.0,47,0.00,,,0.00,,2013-05-16 16:20:00,
2013-05-16 12:30:00,72.0,48.0,29.78,WNW,297,8.0,14.0,43,0.00,,,0.00,,2013-05-16 16:30:00,
2013-05-16 12:40:00,73.0,-99.9,29.78,NW,313,4.0,17.0,46,0.00,,,0.00,,2013-05-16 16:40:00,
2013-05-16 12:50:00,73.0,51.0,29.78,NW,313,4.0,17.0,46,0.00,,,0.00,,2013-05-16 16:50:00,
2013-05-16 13:01:00,73.0,50.0,29.78,WNW,289,8.0,16.0,44,0.00,,,0.00,,2013-05-16 17:01:00,
2013-05-16 13:10:00,73.0,50.0,29.78,North,350,8.0,14.0,45,0.00,,,0.00,,2013-05-16 17:10:00,
2013-05-16 13:20:00,73.0,50.0,29.78,North,350,8.0,14.0,45,0.00,,,0.00,,2013-05-16 17:20:00,
2013-05-16 13:31:00,73.0,51.0,29.79,North,360,9.0,18.0,46,0.00,,,0.00,,2013-05-16 17:31:00,
2013-05-16 13:40:00,73.0,50.0,29.79,NW,324,10.0,18.0,45,0.00,,,0.00,,2013-05-16 17:40:00,
2013-05-16 13:50:00,-999.0,-99.9,29.79,West,261,8.0,17.0,41,0.00,,,0.00,,2013-05-16 17:50:00,
2013-05-16 14:00:00,-999.0,-99.9,29.79,West,261,8.0,17.0,41,0.00,,,0.00,,2013-05-16 18:00:00,
2013-05-16 14:10:00,74.0,48.0,29.78,NW,325,11.0,17.0,40,0.00,,,0.00,,2013-05-16 18:10:00,
2013-05-16 14:20:00,74.0,48.0,29.78,NW,325,11.0,17.0,40,0.00,,,0.00,,2013-05-16 18:20:00,
2013-05-16 14:30:00,-999.0,-99.9,29.79,NW,310,10.0,24.0,40,0.00,,,0.00,,2013-05-16 18:30:00,
2013-05-16 14:40:00,-999.0,-99.9,29.79,NW,305,11.0,18.0,38,0.00,,,0.00,,2013-05-16 18:40:00,
2013-05-16 14:50:00,-999.0,-99.9,29.79,NW,305,11.0,18.0,38,0.00,,,0.00,,2013-05-16 18:50:00,
2013-05-16 15:00:00,-999.0,-99.9,29.79,West,281,10.0,22.0,38,0.00,,,0.00,,2013-05-16 19:00:00,
2013-05-16 15:10:00,74.0,47.0,29.79,NW,315,7.0,20.0,38,0.00,,,0.00,,2013-05-16 19:10:00,
2013-05-16 15:20:00,74.0,47.0,29.79,NW,315,7.0,20.0,38,0.00,,,0.00,,2013-05-16 19:20:00,
2013-05-16 15:30:00,74.0,46.0,29.80,NNW,327,6.0,21.0,37,0.00,,,0.00,,2013-05-16 19:30:00,
2013-05-16 15:40:00,74.0,-99.9,29.80,North,355,6.0,21.0,38,0.00,,,0.00,,2013-05-16 19:40:00,
2013-05-16 15:50:00,-999.0,-99.9,29.80,North,355,6.0,21.0,38,0.00,,,0.00,,2013-05-16 19:50:00,
2013-05-16 16:01:00,-999.0,-99.9,29.80,NE,36,8.0,21.0,35,0.00,,,0.00,,2013-05-16 20:01:00,
2013-05-16 16:10:00,-999.0,-99.9,29.80,WNW,293,14.0,24.0,34,0.00,,,0.00,,2013-05-16 20:10:00,
2013-05-16 16:20:00,73.0,-99.9,29.80,NNW,339,16.0,27.0,34,0.00,,,0.00,,2013-05-16 20:20:00,
2013-05-16 16:30:00,73.0,-99.9,29.80,NNW,339,16.0,27.0,34,0.00,,,0.00,,2013-05-16 20:30:00,
2013-05-16 16:40:00,-999.0,-99.9,29.80,NNE,18,14.0,22.0,36,0.00,,,0.00,,2013-05-16 20:40:00,
2013-05-16 16:50:00,72.0,42.0,29.81,NW,323,10.0,23.0,34,0.00,,,0.00,,2013-05-16 20:50:00,
2013-05-16 17:00:00,72.0,-99.9,29.81,NW,323,10.0,23.0,34,0.00,,,0.00,,2013-05-16 21:00:00,
2013-05-16 17:10:00,73.0,-99.9,29.82,North,360,9.0,17.0,35,0.00,,,0.00,,2013-05-16 21:10:00,
2013-05-16 17:20:00,73.0,-99.9,29.82,North,360,9.0,17.0,35,0.00,,,0.00,,2013-05-16 21:20:00,
2013-05-16 17:29:00,72.0,41.0,29.82,North,349,9.0,21.0,33,0.00,,,0.00,,2013-05-16 21:29:00,
2013-05-16 17:38:00,72.0,41.0,29.82,North,5,5.0,17.0,32,0.00,,,0.00,,2013-05-16 21:38:00,
2013-05-16 17:50:00,72.0,-99.9,29.82,North,5,5.0,17.0,32,0.00,,,0.00,,2013-05-16 21:50:00,
2013-05-16 18:00:00,-999.0,-99.9,29.82,NNE,16,8.0,18.0,30,0.00,,,0.00,,2013-05-16 22:00:00,
2013-05-16 18:08:00,71.0,38.0,29.83,NW,315,7.0,26.0,30,0.00,,,0.00,,2013-05-16 22:08:00,
2013-05-16 18:21:00,71.0,38.0,29.83,NW,315,7.0,26.0,30,0.00,,,0.00,,2013-05-16 22:21:00,
2013-05-16 18:31:00,71.0,38.0,29.84,WNW,296,9.0,18.0,30,0.00,,,0.00,,2013-05-16 22:31:00,
2013-05-16 18:40:00,70.0,37.0,29.84,WNW,302,9.0,18.0,30,0.00,,,0.00,,2013-05-16 22:40:00,
2013-05-16 18:51:00,70.0,37.0,29.84,WNW,302,9.0,18.0,30,0.00,,,0.00,,2013-05-16 22:51:00,
2013-05-16 19:01:00,70.0,38.0,29.86,West,277,7.0,16.0,31,0.00,,,0.00,,2013-05-16 23:01:00,
2013-05-16 19:06:00,69.0,39.0,29.87,WNW,301,9.0,14.0,34,0.00,,,0.00,,2013-05-16 23:06:00,
2013-05-16 19:16:00,66.0,45.0,29.88,North,5,0.0,10.0,46,0.00,,,0.00,,2013-05-16 23:16:00,
2013-05-16 19:24:00,66.0,45.0,29.88,North,5,0.0,10.0,46,0.00,,,0.00,,2013-05-16 23:24:00,
2013-05-16 19:35:00,64.0,44.0,29.89,NNE,21,5.0,13.0,49,0.00,,,0.00,,2013-05-16 23:35:00,
2013-05-16 19:54:00,63.0,45.0,29.91,WNW,298,5.0,9.0,52,0.00,,,0.00,,2013-05-16 23:54:00,
2013-05-16 20:02:00,62.0,44.0,29.91,NNW,335,3.0,11.0,52,0.00,,,0.00,,2013-05-17 00:02:00,
2013-05-16 20:22:00,61.0,44.0,29.92,NNW,333,1.0,6.0,54,0.00,,,0.00,,2013-05-17 00:22:00,
2013-05-16 20:33:00,60.0,44.0,29.93,NNE,17,3.0,6.0,56,0.00,,,0.00,,2013-05-17 00:33:00,
2013-05-16 20:43:00,60.0,44.0,29.93,NNE,17,3.0,6.0,56,0.00,,,0.00,,2013-05-17 00:43:00,
2013-05-16 20:53:00,58.0,44.0,29.94,NNW,348,0.0,5.0,59,0.00,,,0.00,,2013-05-17 00:53:00,
2013-05-16 21:03:00,57.0,43.0,29.94,NNW,348,0.0,0.0,60,0.00,,,0.00,,2013-05-17 01:03:00,
2013-05-16 21:12:00,57.0,43.0,29.94,NNW,348,0.0,0.0,60,0.00,,,0.00,,2013-05-17 01:12:00,
2013-05-16 21:23:00,55.0,43.0,29.95,NNW,348,0.0,1.0,65,0.00,,,0.00,,2013-05-17 01:23:00,
2013-05-16 21:32:00,54.0,43.0,29.95,NNW,348,0.0,0.0,65,0.00,,,0.00,,2013-05-17 01:32:00,
2013-05-16 21:43:00,54.0,43.0,29.95,NNW,348,0.0,0.0,65,0.00,,,0.00,,2013-05-17 01:43:00,
2013-05-16 21:53:00,53.0,42.0,29.96,NW,306,2.0,6.0,67,0.00,,,0.00,,2013-05-17 01:53:00,
2013-05-16 22:02:00,53.0,42.0,29.96,NNW,336,0.0,4.0,66,0.00,,,0.00,,2013-05-17 02:02:00,
2013-05-16 22:11:00,53.0,42.0,29.96,NNW,336,0.0,4.0,66,0.00,,,0.00,,2013-05-17 02:11:00,
2013-05-16 22:22:00,53.0,42.0,29.98,NNW,336,0.0,0.0,67,0.00,,,0.00,,2013-05-17 02:22:00,
2013-05-16 22:32:00,52.0,43.0,29.98,NNW,336,0.0,0.0,70,0.00,,,0.00,,2013-05-17 02:32:00,
2013-05-16 22:42:00,52.0,43.0,29.98,NNW,336,0.0,0.0,70,0.00,,,0.00,,2013-05-17 02:42:00,
2013-05-16 22:53:00,50.0,42.0,29.99,NNW,336,0.0,0.0,74,0.00,,,0.00,,2013-05-17 02:53:00,
2013-05-16 23:02:00,49.0,42.0,29.99,NNW,336,0.0,0.0,76,0.00,,,0.00,,2013-05-17 03:02:00,
2013-05-16 23:11:00,49.0,42.0,29.99,NNW,336,0.0,0.0,76,0.00,,,0.00,,2013-05-17 03:11:00,
2013-05-16 23:23:00,49.0,42.0,30.01,NW,320,0.0,1.0,76,0.00,,,0.00,,2013-05-17 03:23:00,
2013-05-16 23:34:00,49.0,42.0,30.01,NW,320,0.0,0.0,77,0.00,,,0.00,,2013-05-17 03:34:00,
2013-05-16 23:43:00,49.0,42.0,30.01,NW,320,0.0,0.0,77,0.00,,,0.00,,2013-05-17 03:43:00,
2013-05-16 23:53:00,48.0,42.0,30.01,NW,319,0.0,0.0,79,0.00,,,0.00,,2013-05-17 03:53:00,